sensor_id;sensor_type;location;lat;lon;timestamp;pressure;altitude;pressure_sealevel;temperature;humidity
76022;BME280;64718;52.124;6.226;2023-04-03T00:01:02;103074.78;;;1.77;100.00
76022;BME280;64718;52.124;6.226;2023-04-03T00:03:29;103081.59;;;1.77;100.00
76022;BME280;64718;52.124;6.226;2023-04-03T00:05:56;103074.78;;;1.77;100.00
76022;BME280;64718;52.124;6.226;2023-04-03T00:08:24;103073.94;;;1.78;100.00
76022;BME280;64718;52.124;6.226;2023-04-03T00:10:50;103079.91;;;1.77;100.00
76022;BME280;64718;52.124;6.226;2023-04-03T00:13:17;103074.69;;;1.74;100.00
76022;BME280;64718;52.124;6.226;2023-04-03T00:15:44;103080.50;;;1.70;100.00
76022;BME280;64718;52.124;6.226;2023-04-03T00:18:11;103084.78;;;1.70;100.00
76022;BME280;64718;52.124;6.226;2023-04-03T00:20:37;103085.56;;;1.67;100.00
76022;BME280;64718;52.124;6.226;2023-04-03T00:23:04;103086.47;;;1.69;100.00
76022;BME280;64718;52.124;6.226;2023-04-03T00:25:33;103095.72;;;1.64;100.00
76022;BME280;64718;52.124;6.226;2023-04-03T00:28:00;103087.88;;;1.59;100.00
76022;BME280;64718;52.124;6.226;2023-04-03T00:30:27;103096.31;;;1.55;100.00
76022;BME280;64718;52.124;6.226;2023-04-03T00:32:53;103099.59;;;1.51;100.00
76022;BME280;64718;52.124;6.226;2023-04-03T00:35:21;103092.69;;;1.49;100.00
76022;BME280;64718;52.124;6.226;2023-04-03T00:37:50;103090.84;;;1.45;100.00
76022;BME280;64718;52.124;6.226;2023-04-03T00:40:16;103101.09;;;1.45;100.00
76022;BME280;64718;52.124;6.226;2023-04-03T00:42:46;103096.94;;;1.48;100.00
76022;BME280;64718;52.124;6.226;2023-04-03T00:45:28;103102.72;;;1.41;100.00
76022;BME280;64718;52.124;6.226;2023-04-03T00:47:54;103109.44;;;1.38;100.00
76022;BME280;64718;52.124;6.226;2023-04-03T00:50:22;103097.44;;;1.37;100.00
76022;BME280;64718;52.124;6.226;2023-04-03T00:52:49;103101.78;;;1.39;100.00
76022;BME280;64718;52.124;6.226;2023-04-03T00:55:16;103107.78;;;1.40;100.00
76022;BME280;64718;52.124;6.226;2023-04-03T00:57:43;103106.63;;;1.30;100.00
76022;BME280;64718;52.124;6.226;2023-04-03T01:00:14;103110.78;;;1.26;100.00
76022;BME280;64718;52.124;6.226;2023-04-03T01:02:42;103113.19;;;1.22;100.00
76022;BME280;64718;52.124;6.226;2023-04-03T01:05:09;103106.22;;;1.18;100.00
76022;BME280;64718;52.124;6.226;2023-04-03T01:07:36;103107.88;;;1.16;100.00
76022;BME280;64718;52.124;6.226;2023-04-03T01:10:05;103112.03;;;1.14;100.00
76022;BME280;64718;52.124;6.226;2023-04-03T01:12:35;103109.53;;;1.15;100.00
76022;BME280;64718;52.124;6.226;2023-04-03T01:15:05;103106.00;;;1.12;100.00
76022;BME280;64718;52.124;6.226;2023-04-03T01:17:35;103117.84;;;1.08;100.00
76022;BME280;64718;52.124;6.226;2023-04-03T01:23:12;103116.72;;;1.00;100.00
76022;BME280;64718;52.124;6.226;2023-04-03T01:25:45;103113.22;;;0.98;100.00
76022;BME280;64718;52.124;6.226;2023-04-03T01:28:15;103114.00;;;0.95;100.00
76022;BME280;64718;52.124;6.226;2023-04-03T01:30:45;103120.00;;;0.96;100.00
76022;BME280;64718;52.124;6.226;2023-04-03T01:33:15;103123.38;;;0.95;100.00
76022;BME280;64718;52.124;6.226;2023-04-03T01:35:42;103128.56;;;0.97;100.00
76022;BME280;64718;52.124;6.226;2023-04-03T01:38:08;103125.19;;;0.98;100.00
76022;BME280;64718;52.124;6.226;2023-04-03T01:40:35;103130.97;;;0.92;100.00
76022;BME280;64718;52.124;6.226;2023-04-03T01:43:02;103132.56;;;0.88;100.00
76022;BME280;64718;52.124;6.226;2023-04-03T01:45:28;103127.31;;;0.85;100.00
76022;BME280;64718;52.124;6.226;2023-04-03T01:47:55;103128.16;;;0.84;100.00
76022;BME280;64718;52.124;6.226;2023-04-03T01:50:23;103129.06;;;0.86;100.00
76022;BME280;64718;52.124;6.226;2023-04-03T01:52:49;103130.66;;;0.83;100.00
76022;BME280;64718;52.124;6.226;2023-04-03T01:55:16;103125.38;;;0.78;100.00
76022;BME280;64718;52.124;6.226;2023-04-03T01:57:43;103129.56;;;0.76;100.00
76022;BME280;64718;52.124;6.226;2023-04-03T02:00:10;103127.78;;;0.74;100.00
76022;BME280;64718;52.124;6.226;2023-04-03T02:02:37;103135.34;;;0.71;100.00
76022;BME280;64718;52.124;6.226;2023-04-03T02:05:04;103137.09;;;0.72;100.00
76022;BME280;64718;52.124;6.226;2023-04-03T02:07:32;103132.75;;;0.69;100.00
76022;BME280;64718;52.124;6.226;2023-04-03T02:09:58;103141.91;;;0.62;100.00
76022;BME280;64718;52.124;6.226;2023-04-03T02:12:25;103140.09;;;0.60;100.00
76022;BME280;64718;52.124;6.226;2023-04-03T02:14:51;103142.59;;;0.58;100.00
76022;BME280;64718;52.124;6.226;2023-04-03T02:17:18;103148.50;;;0.57;100.00
76022;BME280;64718;52.124;6.226;2023-04-03T02:19:44;103153.53;;;0.54;100.00
76022;BME280;64718;52.124;6.226;2023-04-03T02:22:11;103158.44;;;0.48;100.00
76022;BME280;64718;52.124;6.226;2023-04-03T02:24:39;103156.69;;;0.47;100.00
76022;BME280;64718;52.124;6.226;2023-04-03T02:27:06;103152.44;;;0.48;100.00
76022;BME280;64718;52.124;6.226;2023-04-03T02:29:33;103156.69;;;0.47;100.00
76022;BME280;64718;52.124;6.226;2023-04-03T02:31:59;103157.50;;;0.46;100.00
76022;BME280;64718;52.124;6.226;2023-04-03T02:34:26;103154.22;;;0.50;100.00
76022;BME280;64718;52.124;6.226;2023-04-03T02:37:00;103148.13;;;0.47;100.00
76022;BME280;64718;52.124;6.226;2023-04-03T02:39:27;103154.94;;;0.46;100.00
76022;BME280;64718;52.124;6.226;2023-04-03T02:41:53;103156.41;;;0.40;100.00
76022;BME280;64718;52.124;6.226;2023-04-03T02:44:20;103154.56;;;0.36;100.00
76022;BME280;64718;52.124;6.226;2023-04-03T02:46:46;103159.56;;;0.32;100.00
76022;BME280;64718;52.124;6.226;2023-04-03T02:49:13;103162.06;;;0.31;100.00
76022;BME280;64718;52.124;6.226;2023-04-03T02:51:40;103160.16;;;0.25;100.00
76022;BME280;64718;52.124;6.226;2023-04-03T02:54:08;103160.16;;;0.25;100.00
76022;BME280;64718;52.124;6.226;2023-04-03T02:56:35;103161.72;;;0.22;100.00
76022;BME280;64718;52.124;6.226;2023-04-03T02:59:02;103163.28;;;0.18;100.00
76022;BME280;64718;52.124;6.226;2023-04-03T03:01:28;103155.56;;;0.17;100.00
76022;BME280;64718;52.124;6.226;2023-04-03T03:03:58;103153.72;;;0.13;100.00
76022;BME280;64718;52.124;6.226;2023-04-03T03:06:25;103150.03;;;0.06;100.00
76022;BME280;64718;52.124;6.226;2023-04-03T03:08:51;103164.06;;;0.16;100.00
76022;BME280;64718;52.124;6.226;2023-04-03T03:11:19;103162.59;;;0.22;100.00
76022;BME280;64718;52.124;6.226;2023-04-03T03:13:46;103161.84;;;0.25;100.00
76022;BME280;64718;52.124;6.226;2023-04-03T03:16:12;103166.94;;;0.25;100.00
76022;BME280;64718;52.124;6.226;2023-04-03T03:18:39;103173.69;;;0.23;100.00
76022;BME280;64718;52.124;6.226;2023-04-03T03:21:06;103179.53;;;0.19;100.00
76022;BME280;64718;52.124;6.226;2023-04-03T03:23:33;103170.03;;;0.16;100.00
76022;BME280;64718;52.124;6.226;2023-04-03T03:26:01;103175.81;;;0.11;100.00
76022;BME280;64718;52.124;6.226;2023-04-03T03:28:30;103180.91;;;0.11;100.00
76022;BME280;64718;52.124;6.226;2023-04-03T03:30:57;103179.34;;;0.14;100.00
76022;BME280;64718;52.124;6.226;2023-04-03T03:33:25;103185.44;;;0.18;100.00
76022;BME280;64718;52.124;6.226;2023-04-03T03:35:52;103179.22;;;0.11;100.00
76022;BME280;64718;52.124;6.226;2023-04-03T03:38:19;103180.00;;;0.09;100.00
76022;BME280;64718;52.124;6.226;2023-04-03T03:40:46;103180.00;;;0.09;100.00
76022;BME280;64718;52.124;6.226;2023-04-03T03:43:13;103183.41;;;0.09;100.00
76022;BME280;64718;52.124;6.226;2023-04-03T03:45:41;103188.41;;;0.06;100.00
76022;BME280;64718;52.124;6.226;2023-04-03T03:48:08;103189.22;;;0.05;100.00
76022;BME280;64718;52.124;6.226;2023-04-03T03:50:35;103188.84;;;-0.04;100.00
76022;BME280;64718;52.124;6.226;2023-04-03T03:53:01;103188.56;;;-0.12;100.00
76022;BME280;64718;52.124;6.226;2023-04-03T03:55:28;103190.28;;;-0.11;100.00
76022;BME280;64718;52.124;6.226;2023-04-03T03:57:54;103195.41;;;-0.11;100.00
76022;BME280;64718;52.124;6.226;2023-04-03T04:00:21;103193.66;;;-0.12;100.00
76022;BME280;64718;52.124;6.226;2023-04-03T04:02:49;103195.94;;;-0.19;100.00
76022;BME280;64718;52.124;6.226;2023-04-03T04:05:15;103195.09;;;-0.18;100.00
76022;BME280;64718;52.124;6.226;2023-04-03T04:07:42;103197.53;;;-0.21;100.00
76022;BME280;64718;52.124;6.226;2023-04-03T04:10:09;103195.75;;;-0.24;100.00
76022;BME280;64718;52.124;6.226;2023-04-03T04:12:35;103189.63;;;-0.27;100.00
76022;BME280;64718;52.124;6.226;2023-04-03T04:15:03;103195.50;;;-0.30;100.00
76022;BME280;64718;52.124;6.226;2023-04-03T04:17:30;103196.06;;;-0.37;100.00
76022;BME280;64718;52.124;6.226;2023-04-03T04:19:57;103197.50;;;-0.44;100.00
76022;BME280;64718;52.124;6.226;2023-04-03T04:22:24;103195.69;;;-0.46;100.00
76022;BME280;64718;52.124;6.226;2023-04-03T04:24:50;103202.31;;;-0.51;100.00
76022;BME280;64718;52.124;6.226;2023-04-03T04:27:18;103198.69;;;-0.56;100.00
76022;BME280;64718;52.124;6.226;2023-04-03T04:29:44;103208.63;;;-0.63;100.00
76022;BME280;64718;52.124;6.226;2023-04-03T04:32:11;103213.41;;;-0.70;100.00
76022;BME280;64718;52.124;6.226;2023-04-03T04:34:37;103212.28;;;-0.77;100.00
76022;BME280;64718;52.124;6.226;2023-04-03T04:37:05;103209.13;;;-0.71;100.00
76022;BME280;64718;52.124;6.226;2023-04-03T04:39:32;103211.63;;;-0.73;100.00
76022;BME280;64718;52.124;6.226;2023-04-03T04:41:58;103209.88;;;-0.74;100.00
76022;BME280;64718;52.124;6.226;2023-04-03T04:44:25;103215.91;;;-0.72;100.00
76022;BME280;64718;52.124;6.226;2023-04-03T04:46:51;103214.72;;;-0.80;100.00
76022;BME280;64718;52.124;6.226;2023-04-03T04:49:18;103217.28;;;-0.80;100.00
76022;BME280;64718;52.124;6.226;2023-04-03T04:51:45;103219.63;;;-0.84;100.00
76022;BME280;64718;52.124;6.226;2023-04-03T04:54:13;103218.81;;;-0.83;100.00
76022;BME280;64718;52.124;6.226;2023-04-03T04:56:40;103224.81;;;-0.83;100.00
76022;BME280;64718;52.124;6.226;2023-04-03T04:59:06;103227.56;;;-0.78;100.00
76022;BME280;64718;52.124;6.226;2023-04-03T05:01:33;103231.06;;;-0.76;100.00
76022;BME280;64718;52.124;6.226;2023-04-03T05:04:01;103232.72;;;-0.77;100.00
76022;BME280;64718;52.124;6.226;2023-04-03T05:06:27;103234.47;;;-0.76;100.00
76022;BME280;64718;52.124;6.226;2023-04-03T05:08:55;103235.34;;;-0.75;100.00
76022;BME280;64718;52.124;6.226;2023-04-03T05:11:23;103229.25;;;-0.79;100.00
76022;BME280;64718;52.124;6.226;2023-04-03T05:13:50;103237.72;;;-0.80;100.00
76022;BME280;64718;52.124;6.226;2023-04-03T05:16:17;103232.66;;;-0.78;100.00
76022;BME280;64718;52.124;6.226;2023-04-03T05:18:43;103237.78;;;-0.78;100.00
76022;BME280;64718;52.124;6.226;2023-04-03T05:21:10;103244.50;;;-0.80;100.00
76022;BME280;64718;52.124;6.226;2023-04-03T05:23:36;103248.19;;;-0.74;100.00
76022;BME280;64718;52.124;6.226;2023-04-03T05:26:03;103242.34;;;-0.71;100.00
76022;BME280;64718;52.124;6.226;2023-04-03T05:28:32;103250.81;;;-0.72;100.00
76022;BME280;64718;52.124;6.226;2023-04-03T05:30:59;103248.31;;;-0.71;100.00
76022;BME280;64718;52.124;6.226;2023-04-03T05:33:26;103256.91;;;-0.69;100.00
76022;BME280;64718;52.124;6.226;2023-04-03T05:35:53;103258.53;;;-0.71;100.00
76022;BME280;64718;52.124;6.226;2023-04-03T05:38:19;103264.53;;;-0.70;100.00
76022;BME280;64718;52.124;6.226;2023-04-03T05:40:46;103262.16;;;-0.66;100.00
76022;BME280;64718;52.124;6.226;2023-04-03T05:43:13;103269.97;;;-0.63;100.00
76022;BME280;64718;52.124;6.226;2023-04-03T05:45:40;103266.66;;;-0.60;100.00
76022;BME280;64718;52.124;6.226;2023-04-03T05:48:07;103270.25;;;-0.56;100.00
76022;BME280;64718;52.124;6.226;2023-04-03T05:50:33;103267.06;;;-0.51;100.00
76022;BME280;64718;52.124;6.226;2023-04-03T05:53:02;103268.75;;;-0.51;100.00
76022;BME280;64718;52.124;6.226;2023-04-03T05:55:30;103272.75;;;-0.37;100.00
76022;BME280;64718;52.124;6.226;2023-04-03T05:57:56;103261.59;;;-0.18;100.00
76022;BME280;64718;52.124;6.226;2023-04-03T06:00:23;103267.72;;;0.06;100.00
76022;BME280;64718;52.124;6.226;2023-04-03T06:02:51;103269.59;;;0.32;100.00
76022;BME280;64718;52.124;6.226;2023-04-03T06:05:17;103272.13;;;0.76;100.00
76022;BME280;64718;52.124;6.226;2023-04-03T06:07:44;103269.44;;;2.22;100.00
76022;BME280;64718;52.124;6.226;2023-04-03T06:10:11;103263.13;;;3.28;100.00
76022;BME280;64718;52.124;6.226;2023-04-03T06:12:38;103257.97;;;3.95;95.62
76022;BME280;64718;52.124;6.226;2023-04-03T06:15:05;103265.25;;;4.11;92.65
76022;BME280;64718;52.124;6.226;2023-04-03T06:17:33;103267.88;;;4.13;92.31
76022;BME280;64718;52.124;6.226;2023-04-03T06:20:01;103265.22;;;4.49;91.47
76022;BME280;64718;52.124;6.226;2023-04-03T06:22:29;103258.81;;;5.13;88.45
76022;BME280;64718;52.124;6.226;2023-04-03T06:24:56;103263.19;;;5.17;86.41
76022;BME280;64718;52.124;6.226;2023-04-03T06:27:22;103268.69;;;4.90;87.69
76022;BME280;64718;52.124;6.226;2023-04-03T06:29:49;103269.91;;;5.09;85.63
76022;BME280;64718;52.124;6.226;2023-04-03T06:32:16;103270.28;;;5.27;84.15
76022;BME280;64718;52.124;6.226;2023-04-03T06:34:43;103276.00;;;5.13;85.30
76022;BME280;64718;52.124;6.226;2023-04-03T06:37:14;103284.63;;;5.15;84.78
76022;BME280;64718;52.124;6.226;2023-04-03T06:39:41;103287.06;;;5.51;83.74
76022;BME280;64718;52.124;6.226;2023-04-03T06:42:08;103285.44;;;5.12;84.41
76022;BME280;64718;52.124;6.226;2023-04-03T06:44:35;103290.03;;;5.25;83.37
76022;BME280;64718;52.124;6.226;2023-04-03T06:47:01;103290.59;;;6.04;81.37
76022;BME280;64718;52.124;6.226;2023-04-03T06:49:28;103290.03;;;6.25;77.50
76022;BME280;64718;52.124;6.226;2023-04-03T06:51:55;103298.53;;;6.18;76.97
76022;BME280;64718;52.124;6.226;2023-04-03T06:54:23;103304.44;;;6.09;77.61
76022;BME280;64718;52.124;6.226;2023-04-03T06:56:50;103307.81;;;6.05;76.65
76022;BME280;64718;52.124;6.226;2023-04-03T06:59:17;103301.09;;;6.15;77.72
76022;BME280;64718;52.124;6.226;2023-04-03T07:01:43;103303.72;;;6.18;73.85
76022;BME280;64718;52.124;6.226;2023-04-03T07:04:10;103309.94;;;6.30;74.78
76022;BME280;64718;52.124;6.226;2023-04-03T07:06:36;103309.94;;;5.79;74.28
76022;BME280;64718;52.124;6.226;2023-04-03T07:09:03;103312.41;;;5.73;74.42
76022;BME280;64718;52.124;6.226;2023-04-03T07:11:31;103305.03;;;5.91;72.96
76022;BME280;64718;52.124;6.226;2023-04-03T07:13:57;103312.78;;;6.47;72.71
76022;BME280;64718;52.124;6.226;2023-04-03T07:16:24;103308.75;;;6.09;72.28
76022;BME280;64718;52.124;6.226;2023-04-03T07:18:51;103314.03;;;6.77;72.27
76022;BME280;64718;52.124;6.226;2023-04-03T07:21:17;103311.03;;;7.11;69.29
76022;BME280;64718;52.124;6.226;2023-04-03T07:23:44;103317.78;;;6.97;66.65
76022;BME280;64718;52.124;6.226;2023-04-03T07:26:10;103322.25;;;7.10;66.86
76022;BME280;64718;52.124;6.226;2023-04-03T07:28:38;103321.25;;;6.97;65.21
76022;BME280;64718;52.124;6.226;2023-04-03T07:31:08;103319.56;;;7.01;65.50
76022;BME280;64718;52.124;6.226;2023-04-03T07:33:39;103327.06;;;6.83;66.40
76022;BME280;64718;52.124;6.226;2023-04-03T07:36:06;103325.34;;;6.83;64.50
76022;BME280;64718;52.124;6.226;2023-04-03T07:38:33;103322.88;;;7.67;63.68
76022;BME280;64718;52.124;6.226;2023-04-03T07:41:00;103324.00;;;7.96;60.01
76022;BME280;64718;52.124;6.226;2023-04-03T07:43:27;103323.81;;;7.75;60.01
76022;BME280;64718;52.124;6.226;2023-04-03T07:45:55;103321.09;;;7.63;57.43
76022;BME280;64718;52.124;6.226;2023-04-03T07:48:23;103330.88;;;7.92;58.25
76022;BME280;64718;52.124;6.226;2023-04-03T07:50:49;103330.28;;;7.33;59.00
76022;BME280;64718;52.124;6.226;2023-04-03T07:53:16;103325.69;;;7.91;57.89
76022;BME280;64718;52.124;6.226;2023-04-03T07:55:46;103327.59;;;8.10;57.44
76022;BME280;64718;52.124;6.226;2023-04-03T07:58:14;103336.47;;;8.40;56.26
76022;BME280;64718;52.124;6.226;2023-04-03T08:00:41;103338.28;;;8.54;56.58
76022;BME280;64718;52.124;6.226;2023-04-03T08:03:11;103339.13;;;8.52;54.99
76022;BME280;64718;52.124;6.226;2023-04-03T08:05:38;103341.00;;;8.68;51.13
76022;BME280;64718;52.124;6.226;2023-04-03T08:08:05;103342.69;;;8.66;49.51
76022;BME280;64718;52.124;6.226;2023-04-03T08:10:32;103339.03;;;8.37;49.00
76022;BME280;64718;52.124;6.226;2023-04-03T08:13:00;103341.03;;;8.74;46.83
76022;BME280;64718;52.124;6.226;2023-04-03T08:15:27;103343.66;;;8.83;47.20
76022;BME280;64718;52.124;6.226;2023-04-03T08:17:54;103342.78;;;8.81;46.81
76022;BME280;64718;52.124;6.226;2023-04-03T08:20:22;103344.28;;;8.43;47.42
76022;BME280;64718;52.124;6.226;2023-04-03T08:22:48;103336.97;;;7.98;44.74
76022;BME280;64718;52.124;6.226;2023-04-03T08:25:15;103343.59;;;8.70;45.12
76022;BME280;64718;52.124;6.226;2023-04-03T08:27:42;103336.28;;;8.17;45.32
76022;BME280;64718;52.124;6.226;2023-04-03T08:30:09;103341.66;;;8.38;47.14
76022;BME280;64718;52.124;6.226;2023-04-03T08:32:36;103341.66;;;8.40;45.83
76022;BME280;64718;52.124;6.226;2023-04-03T08:35:03;103350.56;;;8.81;44.31
76022;BME280;64718;52.124;6.226;2023-04-03T08:37:34;103346.91;;;8.52;43.25
76022;BME280;64718;52.124;6.226;2023-04-03T08:40:01;103344.44;;;8.69;43.22
76022;BME280;64718;52.124;6.226;2023-04-03T08:42:36;103346.28;;;8.86;43.36
76022;BME280;64718;52.124;6.226;2023-04-03T08:45:10;103347.16;;;8.88;41.48
76022;BME280;64718;52.124;6.226;2023-04-03T08:47:38;103343.34;;;8.33;40.16
76022;BME280;64718;52.124;6.226;2023-04-03T08:50:12;103345.81;;;8.22;38.66
76022;BME280;64718;52.124;6.226;2023-04-03T08:52:42;103353.88;;;8.59;38.75
76022;BME280;64718;52.124;6.226;2023-04-03T08:55:19;103350.41;;;8.55;37.65
76022;BME280;64718;52.124;6.226;2023-04-03T08:57:49;103348.63;;;8.48;35.93
76022;BME280;64718;52.124;6.226;2023-04-03T09:00:18;103344.25;;;8.41;36.70
76022;BME280;64718;52.124;6.226;2023-04-03T09:02:47;103343.59;;;8.68;36.86
76022;BME280;64718;52.124;6.226;2023-04-03T09:05:16;103345.13;;;8.40;39.01
76022;BME280;64718;52.124;6.226;2023-04-03T09:07:46;103347.19;;;8.99;37.00
76022;BME280;64718;52.124;6.226;2023-04-03T09:10:15;103348.13;;;9.15;36.97
76022;BME280;64718;52.124;6.226;2023-04-03T09:12:44;103341.72;;;8.52;36.75
76022;BME280;64718;52.124;6.226;2023-04-03T09:15:19;103339.41;;;9.04;39.14
76022;BME280;64718;52.124;6.226;2023-04-03T09:17:55;103338.53;;;9.00;36.71
76022;BME280;64718;52.124;6.226;2023-04-03T09:20:29;103346.41;;;9.22;39.14
76022;BME280;64718;52.124;6.226;2023-04-03T09:22:58;103347.13;;;8.84;38.67
76022;BME280;64718;52.124;6.226;2023-04-03T09:25:27;103342.00;;;8.96;38.61
76022;BME280;64718;52.124;6.226;2023-04-03T09:27:59;103347.31;;;7.96;36.79
76022;BME280;64718;52.124;6.226;2023-04-03T09:30:26;103346.88;;;8.46;37.68
76022;BME280;64718;52.124;6.226;2023-04-03T09:32:55;103340.69;;;8.30;37.16
76022;BME280;64718;52.124;6.226;2023-04-03T09:35:24;103344.22;;;8.35;39.26
76022;BME280;64718;52.124;6.226;2023-04-03T09:37:53;103333.22;;;8.68;43.37
76022;BME280;64718;52.124;6.226;2023-04-03T09:40:34;103337.34;;;8.40;38.12
76022;BME280;64718;52.124;6.226;2023-04-03T09:43:23;103332.03;;;8.27;37.26
76022;BME280;64718;52.124;6.226;2023-04-03T09:45:50;103327.88;;;7.51;36.96
76022;BME280;64718;52.124;6.226;2023-04-03T09:48:19;103334.63;;;7.39;38.11
76022;BME280;64718;52.124;6.226;2023-04-03T09:50:58;103326.53;;;7.08;38.08
76022;BME280;64718;52.124;6.226;2023-04-03T09:53:28;103329.41;;;7.34;41.23
76022;BME280;64718;52.124;6.226;2023-04-03T09:55:58;103321.97;;;7.61;40.93
76022;BME280;64718;52.124;6.226;2023-04-03T09:58:27;103323.88;;;7.82;43.07
76022;BME280;64718;52.124;6.226;2023-04-03T10:00:57;103321.31;;;7.87;38.53
76022;BME280;64718;52.124;6.226;2023-04-03T10:03:27;103315.22;;;7.80;41.90
76022;BME280;64718;52.124;6.226;2023-04-03T10:05:55;103309.34;;;8.00;38.34
76022;BME280;64718;52.124;6.226;2023-04-03T10:08:25;103300.81;;;8.13;40.41
76022;BME280;64718;52.124;6.226;2023-04-03T10:11:09;103306.94;;;8.21;40.34
76022;BME280;64718;52.124;6.226;2023-04-03T10:13:37;103312.03;;;8.10;38.05
76022;BME280;64718;52.124;6.226;2023-04-03T10:16:17;103307.94;;;8.38;38.65
76022;BME280;64718;52.124;6.226;2023-04-03T10:18:47;103310.47;;;8.32;37.85
76022;BME280;64718;52.124;6.226;2023-04-03T10:21:20;103306.09;;;8.25;38.97
76022;BME280;64718;52.124;6.226;2023-04-03T10:23:53;103300.00;;;8.17;38.36
76022;BME280;64718;52.124;6.226;2023-04-03T10:26:31;103301.97;;;8.51;39.99
76022;BME280;64718;52.124;6.226;2023-04-03T10:29:02;103295.19;;;8.72;38.18
76022;BME280;64718;52.124;6.226;2023-04-03T10:31:37;103299.59;;;8.94;38.89
76022;BME280;64718;52.124;6.226;2023-04-03T10:34:16;103301.28;;;8.83;38.61
76022;BME280;64718;52.124;6.226;2023-04-03T10:36:51;103286.56;;;8.79;36.60
76022;BME280;64718;52.124;6.226;2023-04-03T10:39:22;103284.84;;;8.82;37.64
76022;BME280;64718;52.124;6.226;2023-04-03T10:42:02;103280.56;;;9.00;42.35
76022;BME280;64718;52.124;6.226;2023-04-03T10:44:36;103275.31;;;8.78;39.68
76022;BME280;64718;52.124;6.226;2023-04-03T10:47:11;103277.09;;;8.99;39.42
76022;BME280;64718;52.124;6.226;2023-04-03T10:49:47;103270.16;;;8.86;39.70
76022;BME280;64718;52.124;6.226;2023-04-03T10:52:20;103275.34;;;8.89;38.90
76022;BME280;64718;52.124;6.226;2023-04-03T10:54:56;103270.09;;;8.69;35.45
76022;BME280;64718;52.124;6.226;2023-04-03T10:57:28;103268.31;;;8.65;36.56
76022;BME280;64718;52.124;6.226;2023-04-03T10:59:58;103264.94;;;8.86;36.47
76022;BME280;64718;52.124;6.226;2023-04-03T11:02:27;103254.66;;;9.16;42.11
76022;BME280;64718;52.124;6.226;2023-04-03T11:04:59;103256.47;;;9.48;39.62
76022;BME280;64718;52.124;6.226;2023-04-03T11:07:26;103250.41;;;9.63;36.93
76022;BME280;64718;52.124;6.226;2023-04-03T11:10:02;103246.94;;;9.76;38.67
76022;BME280;64718;52.124;6.226;2023-04-03T11:12:38;103237.41;;;9.76;39.14
76022;BME280;64718;52.124;6.226;2023-04-03T11:15:12;103247.78;;;9.70;40.02
76022;BME280;64718;52.124;6.226;2023-04-03T11:17:43;103233.06;;;9.57;36.71
76022;BME280;64718;52.124;6.226;2023-04-03T11:20:17;103246.94;;;9.38;36.57
76022;BME280;64718;52.124;6.226;2023-04-03T11:22:48;103239.13;;;9.65;37.41
76022;BME280;64718;52.124;6.226;2023-04-03T11:25:19;103229.59;;;9.66;36.06
76022;BME280;64718;52.124;6.226;2023-04-03T11:27:50;103235.66;;;9.34;36.14
76022;BME280;64718;52.124;6.226;2023-04-03T11:30:21;103227.00;;;9.34;36.89
76022;BME280;64718;52.124;6.226;2023-04-03T11:33:13;103224.41;;;9.47;37.68
76022;BME280;64718;52.124;6.226;2023-04-03T11:35:43;103231.34;;;9.53;37.51
76022;BME280;64718;52.124;6.226;2023-04-03T11:38:18;103226.16;;;9.53;38.10
76022;BME280;64718;52.124;6.226;2023-04-03T11:40:47;103231.34;;;9.83;37.16
76022;BME280;64718;52.124;6.226;2023-04-03T11:43:27;103235.69;;;9.94;39.87
76022;BME280;64718;52.124;6.226;2023-04-03T11:45:56;103223.56;;;9.56;37.04
76022;BME280;64718;52.124;6.226;2023-04-03T11:48:56;103224.41;;;9.72;36.85
76022;BME280;64718;52.124;6.226;2023-04-03T11:51:41;103213.16;;;9.56;39.10
76022;BME280;64718;52.124;6.226;2023-04-03T12:03:34;103213.16;;;9.64;38.56
76022;BME280;64718;52.124;6.226;2023-04-03T12:09:51;103194.97;;;9.36;35.37
76022;BME280;64718;52.124;6.226;2023-04-03T12:12:32;103195.84;;;9.57;36.45
76022;BME280;64718;52.124;6.226;2023-04-03T12:15:19;103203.63;;;9.89;37.96
76022;BME280;64718;52.124;6.226;2023-04-03T12:17:46;103192.38;;;9.83;35.13
76022;BME280;64718;52.124;6.226;2023-04-03T12:20:54;103188.88;;;9.81;36.97
76022;BME280;64718;52.124;6.226;2023-04-03T12:23:24;103189.75;;;9.97;38.91
76022;BME280;64718;52.124;6.226;2023-04-03T12:25:51;103187.13;;;10.06;37.77
76022;BME280;64718;52.124;6.226;2023-04-03T12:28:26;103194.03;;;10.13;36.93
76022;BME280;64718;52.124;6.226;2023-04-03T12:30:53;103181.03;;;10.12;37.61
76022;BME280;64718;52.124;6.226;2023-04-03T12:33:28;103174.94;;;10.30;38.10
76022;BME280;64718;52.124;6.226;2023-04-03T12:36:05;103173.22;;;10.26;37.59
76022;BME280;64718;52.124;6.226;2023-04-03T12:38:52;103171.44;;;10.44;37.38
76022;BME280;64718;52.124;6.226;2023-04-03T12:41:30;103186.25;;;10.09;39.29
76022;BME280;64718;52.124;6.226;2023-04-03T12:44:17;103185.38;;;10.11;38.70
76022;BME280;64718;52.124;6.226;2023-04-03T12:46:49;103169.81;;;9.75;37.48
76022;BME280;64718;52.124;6.226;2023-04-03T12:49:33;103167.16;;;10.10;38.66
76022;BME280;64718;52.124;6.226;2023-04-03T12:52:04;103164.53;;;10.30;36.00
76022;BME280;64718;52.124;6.226;2023-04-03T12:54:35;103169.81;;;9.96;36.95
76022;BME280;64718;52.124;6.226;2023-04-03T12:57:12;103167.19;;;10.05;36.47
76022;BME280;64718;52.124;6.226;2023-04-03T12:59:39;103161.09;;;10.22;37.48
76022;BME280;64718;52.124;6.226;2023-04-03T13:02:25;103166.28;;;10.26;36.60
76022;BME280;64718;52.124;6.226;2023-04-03T13:04:53;103147.25;;;10.09;35.89
76022;BME280;64718;52.124;6.226;2023-04-03T13:07:26;103144.53;;;10.44;39.68
76022;BME280;64718;52.124;6.226;2023-04-03T13:09:58;103149.69;;;10.53;36.93
76022;BME280;64718;52.124;6.226;2023-04-03T13:12:26;103135.06;;;10.25;38.00
76022;BME280;64718;52.124;6.226;2023-04-03T13:14:54;103127.38;;;9.87;38.62
76022;BME280;64718;52.124;6.226;2023-04-03T13:17:21;103140.28;;;10.14;39.46
76022;BME280;64718;52.124;6.226;2023-04-03T13:19:48;103128.16;;;10.22;37.57